sensor_id;sensor_type;location;lat;lon;timestamp;P1;durP1;ratioP1;P2;durP2;ratioP2
20441;SDS011;10380;52.102;20.614;2023-04-08T00:00:28;26.73;;;16.47;;
20441;SDS011;10380;52.102;20.614;2023-04-08T00:02:56;27.43;;;16.80;;
20441;SDS011;10380;52.102;20.614;2023-04-08T00:05:23;21.27;;;14.63;;
20441;SDS011;10380;52.102;20.614;2023-04-08T00:07:50;24.93;;;14.80;;
20441;SDS011;10380;52.102;20.614;2023-04-08T00:10:16;23.00;;;14.80;;
20441;SDS011;10380;52.102;20.614;2023-04-08T00:12:44;25.40;;;16.03;;
20441;SDS011;10380;52.102;20.614;2023-04-08T00:15:12;21.13;;;14.40;;
20441;SDS011;10380;52.102;20.614;2023-04-08T00:17:39;22.23;;;14.93;;
20441;SDS011;10380;52.102;20.614;2023-04-08T00:20:07;21.70;;;14.73;;
20441;SDS011;10380;52.102;20.614;2023-04-08T00:22:34;24.33;;;15.33;;
20441;SDS011;10380;52.102;20.614;2023-04-08T00:25:01;24.97;;;15.23;;
20441;SDS011;10380;52.102;20.614;2023-04-08T00:27:32;20.53;;;14.23;;
20441;SDS011;10380;52.102;20.614;2023-04-08T00:29:59;22.10;;;15.23;;
20441;SDS011;10380;52.102;20.614;2023-04-08T00:32:26;22.13;;;15.03;;
20441;SDS011;10380;52.102;20.614;2023-04-08T00:34:54;20.20;;;13.60;;
20441;SDS011;10380;52.102;20.614;2023-04-08T00:37:21;20.17;;;14.20;;
20441;SDS011;10380;52.102;20.614;2023-04-08T00:39:51;21.77;;;13.97;;
20441;SDS011;10380;52.102;20.614;2023-04-08T00:42:20;22.17;;;14.40;;
20441;SDS011;10380;52.102;20.614;2023-04-08T00:44:47;21.17;;;14.93;;
20441;SDS011;10380;52.102;20.614;2023-04-08T00:47:14;17.90;;;12.70;;
20441;SDS011;10380;52.102;20.614;2023-04-08T00:49:42;21.70;;;15.33;;
20441;SDS011;10380;52.102;20.614;2023-04-08T00:52:10;24.23;;;15.63;;
20441;SDS011;10380;52.102;20.614;2023-04-08T00:54:37;32.40;;;20.10;;
20441;SDS011;10380;52.102;20.614;2023-04-08T00:57:07;30.33;;;19.10;;
20441;SDS011;10380;52.102;20.614;2023-04-08T00:59:34;31.43;;;19.10;;
20441;SDS011;10380;52.102;20.614;2023-04-08T01:05:50;35.83;;;19.47;;
20441;SDS011;10380;52.102;20.614;2023-04-08T01:08:20;27.90;;;18.47;;
20441;SDS011;10380;52.102;20.614;2023-04-08T01:10:48;32.07;;;20.20;;
20441;SDS011;10380;52.102;20.614;2023-04-08T01:13:19;32.03;;;19.60;;
20441;SDS011;10380;52.102;20.614;2023-04-08T01:15:49;28.97;;;17.97;;
20441;SDS011;10380;52.102;20.614;2023-04-08T01:18:16;29.77;;;18.60;;
20441;SDS011;10380;52.102;20.614;2023-04-08T01:20:44;29.17;;;18.13;;
20441;SDS011;10380;52.102;20.614;2023-04-08T01:23:22;31.53;;;19.87;;
20441;SDS011;10380;52.102;20.614;2023-04-08T01:25:56;25.60;;;16.17;;
20441;SDS011;10380;52.102;20.614;2023-04-08T01:28:26;27.73;;;17.07;;
20441;SDS011;10380;52.102;20.614;2023-04-08T01:30:55;27.97;;;17.53;;
20441;SDS011;10380;52.102;20.614;2023-04-08T01:33:24;25.70;;;16.97;;
20441;SDS011;10380;52.102;20.614;2023-04-08T01:35:54;29.00;;;17.47;;
20441;SDS011;10380;52.102;20.614;2023-04-08T01:38:23;24.30;;;15.77;;
20441;SDS011;10380;52.102;20.614;2023-04-08T01:40:52;27.57;;;18.27;;
20441;SDS011;10380;52.102;20.614;2023-04-08T01:43:21;26.50;;;17.37;;
20441;SDS011;10380;52.102;20.614;2023-04-08T01:45:49;26.53;;;18.13;;
20441;SDS011;10380;52.102;20.614;2023-04-08T01:48:19;28.03;;;18.63;;
20441;SDS011;10380;52.102;20.614;2023-04-08T01:50:48;29.97;;;18.70;;
20441;SDS011;10380;52.102;20.614;2023-04-08T01:53:16;28.57;;;19.00;;
20441;SDS011;10380;52.102;20.614;2023-04-08T01:55:43;27.60;;;18.03;;
20441;SDS011;10380;52.102;20.614;2023-04-08T01:58:12;28.87;;;17.83;;
20441;SDS011;10380;52.102;20.614;2023-04-08T02:00:45;27.70;;;17.50;;
20441;SDS011;10380;52.102;20.614;2023-04-08T02:03:12;31.60;;;19.47;;
20441;SDS011;10380;52.102;20.614;2023-04-08T02:05:43;28.70;;;17.30;;
20441;SDS011;10380;52.102;20.614;2023-04-08T02:08:10;26.37;;;17.03;;
20441;SDS011;10380;52.102;20.614;2023-04-08T02:10:38;30.70;;;18.60;;
20441;SDS011;10380;52.102;20.614;2023-04-08T02:13:06;33.00;;;18.93;;
20441;SDS011;10380;52.102;20.614;2023-04-08T02:15:33;26.77;;;17.40;;
20441;SDS011;10380;52.102;20.614;2023-04-08T02:18:13;32.80;;;20.23;;
20441;SDS011;10380;52.102;20.614;2023-04-08T02:20:43;32.07;;;18.57;;
20441;SDS011;10380;52.102;20.614;2023-04-08T02:23:18;44.10;;;23.20;;
20441;SDS011;10380;52.102;20.614;2023-04-08T02:25:47;32.90;;;20.03;;
20441;SDS011;10380;52.102;20.614;2023-04-08T02:28:17;29.53;;;18.70;;
20441;SDS011;10380;52.102;20.614;2023-04-08T02:30:49;32.60;;;19.60;;
20441;SDS011;10380;52.102;20.614;2023-04-08T02:33:18;33.10;;;20.60;;
20441;SDS011;10380;52.102;20.614;2023-04-08T02:35:48;30.93;;;19.50;;
20441;SDS011;10380;52.102;20.614;2023-04-08T02:38:16;29.33;;;17.77;;
20441;SDS011;10380;52.102;20.614;2023-04-08T02:40:43;32.40;;;18.23;;
20441;SDS011;10380;52.102;20.614;2023-04-08T02:43:10;32.30;;;19.93;;
20441;SDS011;10380;52.102;20.614;2023-04-08T02:45:38;37.97;;;21.10;;
20441;SDS011;10380;52.102;20.614;2023-04-08T02:48:07;32.90;;;20.73;;
20441;SDS011;10380;52.102;20.614;2023-04-08T02:50:35;31.20;;;17.87;;
20441;SDS011;10380;52.102;20.614;2023-04-08T02:53:02;27.57;;;17.83;;
20441;SDS011;10380;52.102;20.614;2023-04-08T02:55:29;29.20;;;18.80;;
20441;SDS011;10380;52.102;20.614;2023-04-08T02:57:56;31.73;;;21.03;;
20441;SDS011;10380;52.102;20.614;2023-04-08T03:00:23;33.57;;;21.43;;
20441;SDS011;10380;52.102;20.614;2023-04-08T03:02:49;33.87;;;21.10;;
20441;SDS011;10380;52.102;20.614;2023-04-08T03:05:17;36.90;;;20.13;;
20441;SDS011;10380;52.102;20.614;2023-04-08T03:07:44;32.33;;;19.37;;
20441;SDS011;10380;52.102;20.614;2023-04-08T03:10:11;32.50;;;19.20;;
20441;SDS011;10380;52.102;20.614;2023-04-08T03:12:38;30.47;;;19.17;;
20441;SDS011;10380;52.102;20.614;2023-04-08T03:15:05;28.07;;;18.70;;
20441;SDS011;10380;52.102;20.614;2023-04-08T03:17:32;29.93;;;18.73;;
20441;SDS011;10380;52.102;20.614;2023-04-08T03:20:00;34.10;;;19.70;;
20441;SDS011;10380;52.102;20.614;2023-04-08T03:22:30;33.10;;;18.97;;
20441;SDS011;10380;52.102;20.614;2023-04-08T03:24:57;32.37;;;19.33;;
20441;SDS011;10380;52.102;20.614;2023-04-08T03:27:24;29.27;;;18.33;;
20441;SDS011;10380;52.102;20.614;2023-04-08T03:29:51;33.03;;;20.50;;
20441;SDS011;10380;52.102;20.614;2023-04-08T03:32:19;31.13;;;18.73;;
20441;SDS011;10380;52.102;20.614;2023-04-08T03:34:46;27.83;;;18.60;;
20441;SDS011;10380;52.102;20.614;2023-04-08T03:37:15;38.73;;;22.20;;
20441;SDS011;10380;52.102;20.614;2023-04-08T03:39:42;30.73;;;20.00;;
20441;SDS011;10380;52.102;20.614;2023-04-08T03:42:09;35.87;;;20.17;;
20441;SDS011;10380;52.102;20.614;2023-04-08T03:44:36;37.40;;;21.27;;
20441;SDS011;10380;52.102;20.614;2023-04-08T03:47:03;32.90;;;20.13;;
20441;SDS011;10380;52.102;20.614;2023-04-08T03:49:30;33.77;;;20.13;;
20441;SDS011;10380;52.102;20.614;2023-04-08T03:51:57;36.23;;;21.30;;
20441;SDS011;10380;52.102;20.614;2023-04-08T03:54:24;34.93;;;19.03;;
20441;SDS011;10380;52.102;20.614;2023-04-08T03:56:51;37.83;;;20.00;;
20441;SDS011;10380;52.102;20.614;2023-04-08T03:59:17;31.77;;;19.50;;
20441;SDS011;10380;52.102;20.614;2023-04-08T04:01:45;31.90;;;18.73;;
20441;SDS011;10380;52.102;20.614;2023-04-08T04:04:12;30.73;;;19.53;;
20441;SDS011;10380;52.102;20.614;2023-04-08T04:06:40;34.57;;;19.67;;
20441;SDS011;10380;52.102;20.614;2023-04-08T04:09:07;32.33;;;20.87;;
20441;SDS011;10380;52.102;20.614;2023-04-08T04:11:34;37.93;;;21.00;;
20441;SDS011;10380;52.102;20.614;2023-04-08T04:14:01;34.30;;;19.97;;
20441;SDS011;10380;52.102;20.614;2023-04-08T04:16:29;36.20;;;21.83;;
20441;SDS011;10380;52.102;20.614;2023-04-08T04:18:58;39.60;;;21.73;;
20441;SDS011;10380;52.102;20.614;2023-04-08T04:21:25;35.43;;;21.73;;
20441;SDS011;10380;52.102;20.614;2023-04-08T04:23:52;36.90;;;23.77;;
20441;SDS011;10380;52.102;20.614;2023-04-08T04:26:19;34.90;;;21.17;;
20441;SDS011;10380;52.102;20.614;2023-04-08T04:28:46;38.63;;;20.73;;
20441;SDS011;10380;52.102;20.614;2023-04-08T04:31:19;43.10;;;21.97;;
20441;SDS011;10380;52.102;20.614;2023-04-08T04:33:47;37.40;;;22.00;;
20441;SDS011;10380;52.102;20.614;2023-04-08T04:36:14;37.27;;;21.77;;
20441;SDS011;10380;52.102;20.614;2023-04-08T04:38:42;39.80;;;23.37;;
20441;SDS011;10380;52.102;20.614;2023-04-08T04:41:10;47.97;;;25.67;;
20441;SDS011;10380;52.102;20.614;2023-04-08T04:43:37;51.10;;;26.43;;
20441;SDS011;10380;52.102;20.614;2023-04-08T04:46:04;43.23;;;24.67;;
20441;SDS011;10380;52.102;20.614;2023-04-08T04:48:34;48.80;;;25.63;;
20441;SDS011;10380;52.102;20.614;2023-04-08T04:51:01;49.70;;;28.30;;
20441;SDS011;10380;52.102;20.614;2023-04-08T04:53:29;56.77;;;30.70;;
20441;SDS011;10380;52.102;20.614;2023-04-08T04:55:57;54.63;;;30.80;;
20441;SDS011;10380;52.102;20.614;2023-04-08T04:58:26;54.93;;;29.90;;
20441;SDS011;10380;52.102;20.614;2023-04-08T05:00:54;52.67;;;29.50;;
20441;SDS011;10380;52.102;20.614;2023-04-08T05:03:21;52.13;;;28.50;;
20441;SDS011;10380;52.102;20.614;2023-04-08T05:05:52;45.33;;;25.87;;
20441;SDS011;10380;52.102;20.614;2023-04-08T05:08:20;41.80;;;24.57;;
20441;SDS011;10380;52.102;20.614;2023-04-08T05:10:48;38.33;;;22.07;;
20441;SDS011;10380;52.102;20.614;2023-04-08T05:13:16;33.17;;;20.73;;
20441;SDS011;10380;52.102;20.614;2023-04-08T05:15:44;35.87;;;21.93;;
20441;SDS011;10380;52.102;20.614;2023-04-08T05:18:11;36.80;;;20.47;;
20441;SDS011;10380;52.102;20.614;2023-04-08T05:20:38;33.93;;;22.17;;
20441;SDS011;10380;52.102;20.614;2023-04-08T05:23:07;34.03;;;21.93;;
20441;SDS011;10380;52.102;20.614;2023-04-08T05:25:34;34.27;;;20.43;;
20441;SDS011;10380;52.102;20.614;2023-04-08T05:28:01;30.70;;;19.47;;
20441;SDS011;10380;52.102;20.614;2023-04-08T05:30:31;30.73;;;20.23;;
20441;SDS011;10380;52.102;20.614;2023-04-08T05:32:58;28.97;;;19.47;;
20441;SDS011;10380;52.102;20.614;2023-04-08T05:35:26;30.17;;;18.97;;
20441;SDS011;10380;52.102;20.614;2023-04-08T05:37:54;30.33;;;19.53;;
20441;SDS011;10380;52.102;20.614;2023-04-08T05:40:21;30.30;;;19.07;;
20441;SDS011;10380;52.102;20.614;2023-04-08T05:42:47;30.57;;;19.37;;
20441;SDS011;10380;52.102;20.614;2023-04-08T05:45:15;28.00;;;18.80;;
20441;SDS011;10380;52.102;20.614;2023-04-08T05:47:41;27.83;;;18.47;;
20441;SDS011;10380;52.102;20.614;2023-04-08T05:50:09;29.43;;;17.33;;
20441;SDS011;10380;52.102;20.614;2023-04-08T05:52:40;26.47;;;16.90;;
20441;SDS011;10380;52.102;20.614;2023-04-08T05:55:09;24.83;;;16.83;;
20441;SDS011;10380;52.102;20.614;2023-04-08T05:57:36;24.47;;;16.60;;
20441;SDS011;10380;52.102;20.614;2023-04-08T06:00:04;21.77;;;16.00;;
20441;SDS011;10380;52.102;20.614;2023-04-08T06:02:32;25.53;;;16.23;;
20441;SDS011;10380;52.102;20.614;2023-04-08T06:05:00;25.00;;;17.13;;
20441;SDS011;10380;52.102;20.614;2023-04-08T06:07:29;24.13;;;16.17;;
20441;SDS011;10380;52.102;20.614;2023-04-08T06:09:57;22.57;;;14.93;;
20441;SDS011;10380;52.102;20.614;2023-04-08T06:12:24;24.17;;;16.57;;
20441;SDS011;10380;52.102;20.614;2023-04-08T06:14:54;29.20;;;16.77;;
20441;SDS011;10380;52.102;20.614;2023-04-08T06:17:21;20.43;;;14.87;;
20441;SDS011;10380;52.102;20.614;2023-04-08T06:19:48;20.80;;;13.87;;
20441;SDS011;10380;52.102;20.614;2023-04-08T06:22:15;21.90;;;14.07;;
20441;SDS011;10380;52.102;20.614;2023-04-08T06:24:42;21.03;;;14.20;;
20441;SDS011;10380;52.102;20.614;2023-04-08T06:27:09;19.80;;;13.33;;
20441;SDS011;10380;52.102;20.614;2023-04-08T06:29:37;16.03;;;12.33;;
20441;SDS011;10380;52.102;20.614;2023-04-08T06:32:05;16.97;;;11.63;;
20441;SDS011;10380;52.102;20.614;2023-04-08T06:34:32;15.93;;;11.70;;
20441;SDS011;10380;52.102;20.614;2023-04-08T06:36:59;15.50;;;10.90;;
20441;SDS011;10380;52.102;20.614;2023-04-08T06:39:26;14.70;;;10.67;;
20441;SDS011;10380;52.102;20.614;2023-04-08T06:41:53;15.53;;;11.20;;
20441;SDS011;10380;52.102;20.614;2023-04-08T06:44:20;15.27;;;10.83;;
20441;SDS011;10380;52.102;20.614;2023-04-08T06:46:47;12.17;;;9.40;;
20441;SDS011;10380;52.102;20.614;2023-04-08T06:49:14;12.07;;;9.33;;
20441;SDS011;10380;52.102;20.614;2023-04-08T06:51:41;12.93;;;10.00;;
20441;SDS011;10380;52.102;20.614;2023-04-08T06:54:08;12.87;;;10.13;;
20441;SDS011;10380;52.102;20.614;2023-04-08T06:56:35;17.13;;;11.50;;
20441;SDS011;10380;52.102;20.614;2023-04-08T06:59:02;15.33;;;11.30;;
20441;SDS011;10380;52.102;20.614;2023-04-08T07:01:31;15.60;;;10.70;;
20441;SDS011;10380;52.102;20.614;2023-04-08T07:03:58;14.70;;;10.37;;
20441;SDS011;10380;52.102;20.614;2023-04-08T07:06:25;13.87;;;9.93;;
20441;SDS011;10380;52.102;20.614;2023-04-08T07:08:52;10.93;;;8.70;;
20441;SDS011;10380;52.102;20.614;2023-04-08T07:11:18;11.90;;;9.17;;
20441;SDS011;10380;52.102;20.614;2023-04-08T07:13:46;11.37;;;8.93;;
20441;SDS011;10380;52.102;20.614;2023-04-08T07:16:13;12.00;;;9.30;;
20441;SDS011;10380;52.102;20.614;2023-04-08T07:18:40;12.90;;;8.90;;
20441;SDS011;10380;52.102;20.614;2023-04-08T07:21:08;12.07;;;8.80;;
20441;SDS011;10380;52.102;20.614;2023-04-08T07:23:35;11.20;;;8.63;;
20441;SDS011;10380;52.102;20.614;2023-04-08T07:26:02;11.77;;;8.67;;
20441;SDS011;10380;52.102;20.614;2023-04-08T07:28:33;11.70;;;8.40;;
20441;SDS011;10380;52.102;20.614;2023-04-08T07:31:10;10.73;;;8.97;;
20441;SDS011;10380;52.102;20.614;2023-04-08T07:33:42;10.97;;;7.73;;
20441;SDS011;10380;52.102;20.614;2023-04-08T07:36:10;14.13;;;8.40;;
20441;SDS011;10380;52.102;20.614;2023-04-08T07:38:38;11.17;;;8.37;;
20441;SDS011;10380;52.102;20.614;2023-04-08T07:41:06;10.00;;;7.63;;
20441;SDS011;10380;52.102;20.614;2023-04-08T07:43:33;10.07;;;7.93;;
20441;SDS011;10380;52.102;20.614;2023-04-08T07:46:05;8.67;;;7.07;;
20441;SDS011;10380;52.102;20.614;2023-04-08T07:48:33;8.87;;;6.87;;
20441;SDS011;10380;52.102;20.614;2023-04-08T07:51:04;11.77;;;8.40;;
20441;SDS011;10380;52.102;20.614;2023-04-08T07:53:35;10.80;;;8.90;;
20441;SDS011;10380;52.102;20.614;2023-04-08T07:56:09;8.73;;;7.33;;
20441;SDS011;10380;52.102;20.614;2023-04-08T07:58:37;9.83;;;7.90;;
20441;SDS011;10380;52.102;20.614;2023-04-08T08:03:44;10.00;;;8.07;;
20441;SDS011;10380;52.102;20.614;2023-04-08T08:06:13;10.50;;;8.10;;
20441;SDS011;10380;52.102;20.614;2023-04-08T08:08:40;12.13;;;7.60;;
20441;SDS011;10380;52.102;20.614;2023-04-08T08:11:07;8.03;;;7.23;;
20441;SDS011;10380;52.102;20.614;2023-04-08T08:13:34;8.50;;;7.60;;
20441;SDS011;10380;52.102;20.614;2023-04-08T08:16:02;8.83;;;7.27;;
20441;SDS011;10380;52.102;20.614;2023-04-08T08:18:29;10.70;;;7.73;;
20441;SDS011;10380;52.102;20.614;2023-04-08T08:20:55;9.03;;;7.47;;
20441;SDS011;10380;52.102;20.614;2023-04-08T08:23:22;9.57;;;7.47;;
20441;SDS011;10380;52.102;20.614;2023-04-08T08:25:53;9.50;;;7.43;;
20441;SDS011;10380;52.102;20.614;2023-04-08T08:28:28;11.13;;;7.70;;
20441;SDS011;10380;52.102;20.614;2023-04-08T08:30:55;8.37;;;7.47;;
20441;SDS011;10380;52.102;20.614;2023-04-08T08:33:23;9.83;;;7.20;;
20441;SDS011;10380;52.102;20.614;2023-04-08T08:35:50;9.43;;;7.77;;
20441;SDS011;10380;52.102;20.614;2023-04-08T08:38:18;7.67;;;6.87;;
20441;SDS011;10380;52.102;20.614;2023-04-08T08:40:45;9.97;;;8.10;;
20441;SDS011;10380;52.102;20.614;2023-04-08T08:43:12;9.50;;;7.40;;
20441;SDS011;10380;52.102;20.614;2023-04-08T08:45:40;8.77;;;7.30;;
20441;SDS011;10380;52.102;20.614;2023-04-08T08:48:07;8.77;;;7.57;;
20441;SDS011;10380;52.102;20.614;2023-04-08T08:50:35;9.90;;;8.00;;
20441;SDS011;10380;52.102;20.614;2023-04-08T08:53:03;9.80;;;7.07;;
20441;SDS011;10380;52.102;20.614;2023-04-08T08:55:30;10.83;;;7.07;;
20441;SDS011;10380;52.102;20.614;2023-04-08T08:58:19;9.37;;;7.83;;
20441;SDS011;10380;52.102;20.614;2023-04-08T09:00:46;9.53;;;7.57;;
20441;SDS011;10380;52.102;20.614;2023-04-08T09:03:21;10.17;;;7.60;;
20441;SDS011;10380;52.102;20.614;2023-04-08T09:05:56;13.27;;;8.57;;
20441;SDS011;10380;52.102;20.614;2023-04-08T09:11:14;11.63;;;8.90;;
20441;SDS011;10380;52.102;20.614;2023-04-08T09:13:43;11.30;;;8.47;;
20441;SDS011;10380;52.102;20.614;2023-04-08T09:16:12;13.53;;;10.33;;
20441;SDS011;10380;52.102;20.614;2023-04-08T09:18:42;10.00;;;8.13;;
20441;SDS011;10380;52.102;20.614;2023-04-08T09:21:15;15.73;;;9.67;;
20441;SDS011;10380;52.102;20.614;2023-04-08T09:28:40;11.33;;;8.50;;
20441;SDS011;10380;52.102;20.614;2023-04-08T09:31:24;10.40;;;8.53;;
20441;SDS011;10380;52.102;20.614;2023-04-08T09:33:56;10.83;;;8.60;;
20441;SDS011;10380;52.102;20.614;2023-04-08T09:36:26;12.40;;;9.60;;
20441;SDS011;10380;52.102;20.614;2023-04-08T09:38:54;12.27;;;8.97;;
20441;SDS011;10380;52.102;20.614;2023-04-08T09:41:22;10.67;;;8.77;;
20441;SDS011;10380;52.102;20.614;2023-04-08T09:43:51;11.63;;;8.83;;
20441;SDS011;10380;52.102;20.614;2023-04-08T09:49:12;9.70;;;8.70;;
20441;SDS011;10380;52.102;20.614;2023-04-08T09:51:47;11.97;;;8.77;;
20441;SDS011;10380;52.102;20.614;2023-04-08T09:54:30;10.37;;;8.10;;
20441;SDS011;10380;52.102;20.614;2023-04-08T09:57:10;10.48;;;8.40;;
20441;SDS011;10380;52.102;20.614;2023-04-08T09:59:41;11.40;;;8.57;;
20441;SDS011;10380;52.102;20.614;2023-04-08T10:02:15;13.37;;;9.63;;
20441;SDS011;10380;52.102;20.614;2023-04-08T10:04:45;11.27;;;9.03;;
20441;SDS011;10380;52.102;20.614;2023-04-08T10:07:16;10.63;;;8.50;;
20441;SDS011;10380;52.102;20.614;2023-04-08T10:09:44;13.63;;;9.30;;
20441;SDS011;10380;52.102;20.614;2023-04-08T10:12:11;11.17;;;9.27;;
20441;SDS011;10380;52.102;20.614;2023-04-08T10:14:39;9.70;;;8.70;;
20441;SDS011;10380;52.102;20.614;2023-04-08T10:17:24;10.30;;;8.95;;
20441;SDS011;10380;52.102;20.614;2023-04-08T10:20:01;12.73;;;8.50;;
20441;SDS011;10380;52.102;20.614;2023-04-08T10:27:44;11.43;;;9.33;;
20441;SDS011;10380;52.102;20.614;2023-04-08T10:32:53;10.30;;;7.88;;
20441;SDS011;10380;52.102;20.614;2023-04-08T10:35:28;11.97;;;9.03;;
20441;SDS011;10380;52.102;20.614;2023-04-08T10:37:56;9.63;;;7.90;;
20441;SDS011;10380;52.102;20.614;2023-04-08T10:40:25;12.03;;;8.93;;
20441;SDS011;10380;52.102;20.614;2023-04-08T10:42:56;12.60;;;9.03;;
20441;SDS011;10380;52.102;20.614;2023-04-08T10:45:26;9.18;;;7.88;;
20441;SDS011;10380;52.102;20.614;2023-04-08T10:47:54;9.98;;;7.60;;
20441;SDS011;10380;52.102;20.614;2023-04-08T10:50:21;9.47;;;8.43;;
20441;SDS011;10380;52.102;20.614;2023-04-08T10:52:51;10.50;;;7.47;;
20441;SDS011;10380;52.102;20.614;2023-04-08T10:55:22;10.30;;;8.30;;
20441;SDS011;10380;52.102;20.614;2023-04-08T10:57:50;11.87;;;8.17;;
20441;SDS011;10380;52.102;20.614;2023-04-08T11:00:17;8.27;;;7.45;;
20441;SDS011;10380;52.102;20.614;2023-04-08T11:02:45;10.00;;;8.10;;
20441;SDS011;10380;52.102;20.614;2023-04-08T11:05:12;8.97;;;7.30;;
20441;SDS011;10380;52.102;20.614;2023-04-08T11:07:42;8.63;;;6.50;;
20441;SDS011;10380;52.102;20.614;2023-04-08T11:10:09;9.38;;;7.90;;
20441;SDS011;10380;52.102;20.614;2023-04-08T11:12:36;10.00;;;7.73;;
20441;SDS011;10380;52.102;20.614;2023-04-08T11:15:04;8.63;;;7.55;;
20441;SDS011;10380;52.102;20.614;2023-04-08T11:17:33;8.52;;;7.43;;
20441;SDS011;10380;52.102;20.614;2023-04-08T11:20:00;8.48;;;7.60;;
20441;SDS011;10380;52.102;20.614;2023-04-08T11:22:31;9.65;;;8.30;;
20441;SDS011;10380;52.102;20.614;2023-04-08T11:24:59;8.70;;;7.80;;
20441;SDS011;10380;52.102;20.614;2023-04-08T11:27:28;7.80;;;6.88;;
20441;SDS011;10380;52.102;20.614;2023-04-08T11:29:55;9.70;;;6.82;;
20441;SDS011;10380;52.102;20.614;2023-04-08T11:32:22;7.72;;;6.80;;
20441;SDS011;10380;52.102;20.614;2023-04-08T11:34:50;9.52;;;7.35;;
20441;SDS011;10380;52.102;20.614;2023-04-08T11:37:18;9.90;;;8.07;;
20441;SDS011;10380;52.102;20.614;2023-04-08T11:39:45;9.18;;;7.93;;
20441;SDS011;10380;52.102;20.614;2023-04-08T11:42:28;8.27;;;6.85;;
20441;SDS011;10380;52.102;20.614;2023-04-08T11:44:56;8.80;;;7.15;;
20441;SDS011;10380;52.102;20.614;2023-04-08T11:47:33;9.82;;;7.07;;
20441;SDS011;10380;52.102;20.614;2023-04-08T11:50:00;9.30;;;7.25;;
20441;SDS011;10380;52.102;20.614;2023-04-08T11:52:46;7.68;;;6.78;;
20441;SDS011;10380;52.102;20.614;2023-04-08T11:55:24;7.32;;;6.03;;
20441;SDS011;10380;52.102;20.614;2023-04-08T11:57:53;7.22;;;6.53;;
20441;SDS011;10380;52.102;20.614;2023-04-08T12:00:21;7.80;;;6.40;;
20441;SDS011;10380;52.102;20.614;2023-04-08T12:02:48;7.43;;;6.65;;
20441;SDS011;10380;52.102;20.614;2023-04-08T12:05:17;8.60;;;7.70;;
20441;SDS011;10380;52.102;20.614;2023-04-08T12:07:44;9.70;;;8.32;;
20441;SDS011;10380;52.102;20.614;2023-04-08T12:10:11;9.23;;;8.02;;
20441;SDS011;10380;52.102;20.614;2023-04-08T12:12:39;9.52;;;7.68;;
20441;SDS011;10380;52.102;20.614;2023-04-08T12:15:06;10.70;;;9.60;;
20441;SDS011;10380;52.102;20.614;2023-04-08T12:17:34;9.57;;;8.48;;
20441;SDS011;10380;52.102;20.614;2023-04-08T12:20:01;9.55;;;8.50;;
20441;SDS011;10380;52.102;20.614;2023-04-08T12:22:29;10.20;;;8.45;;
20441;SDS011;10380;52.102;20.614;2023-04-08T12:24:56;10.75;;;9.18;;
20441;SDS011;10380;52.102;20.614;2023-04-08T12:27:24;9.52;;;7.95;;
20441;SDS011;10380;52.102;20.614;2023-04-08T12:29:51;8.40;;;7.25;;
20441;SDS011;10380;52.102;20.614;2023-04-08T12:32:18;9.32;;;8.30;;
20441;SDS011;10380;52.102;20.614;2023-04-08T12:34:45;9.85;;;8.10;;
20441;SDS011;10380;52.102;20.614;2023-04-08T12:37:12;9.68;;;7.85;;
20441;SDS011;10380;52.102;20.614;2023-04-08T12:39:39;8.23;;;7.28;;
20441;SDS011;10380;52.102;20.614;2023-04-08T12:42:07;10.70;;;8.38;;
20441;SDS011;10380;52.102;20.614;2023-04-08T12:44:34;8.30;;;7.30;;
20441;SDS011;10380;52.102;20.614;2023-04-08T12:47:01;8.15;;;7.07;;
20441;SDS011;10380;52.102;20.614;2023-04-08T12:49:28;8.68;;;6.78;;
20441;SDS011;10380;52.102;20.614;2023-04-08T12:51:57;7.57;;;6.88;;
20441;SDS011;10380;52.102;20.614;2023-04-08T12:54:24;6.90;;;6.10;;
20441;SDS011;10380;52.102;20.614;2023-04-08T12:56:51;7.88;;;6.82;;
20441;SDS011;10380;52.102;20.614;2023-04-08T12:59:18;7.68;;;6.88;;
20441;SDS011;10380;52.102;20.614;2023-04-08T13:01:45;8.18;;;6.88;;
20441;SDS011;10380;52.102;20.614;2023-04-08T13:04:12;7.97;;;7.18;;
20441;SDS011;10380;52.102;20.614;2023-04-08T13:06:39;9.23;;;7.32;;
20441;SDS011;10380;52.102;20.614;2023-04-08T13:09:06;8.63;;;7.13;;
20441;SDS011;10380;52.102;20.614;2023-04-08T13:11:33;7.75;;;6.97;;
20441;SDS011;10380;52.102;20.614;2023-04-08T13:14:00;7.00;;;6.30;;
20441;SDS011;10380;52.102;20.614;2023-04-08T13:16:27;7.65;;;6.72;;
20441;SDS011;10380;52.102;20.614;2023-04-08T13:18:54;7.07;;;6.38;;
20441;SDS011;10380;52.102;20.614;2023-04-08T13:21:21;6.53;;;5.93;;
20441;SDS011;10380;52.102;20.614;2023-04-08T13:23:47;8.73;;;6.25;;
20441;SDS011;10380;52.102;20.614;2023-04-08T13:26:15;6.72;;;5.82;;
20441;SDS011;10380;52.102;20.614;2023-04-08T13:28:41;6.15;;;5.65;;
20441;SDS011;10380;52.102;20.614;2023-04-08T13:31:22;6.18;;;5.57;;
20441;SDS011;10380;52.102;20.614;2023-04-08T13:33:50;5.97;;;5.38;;
20441;SDS011;10380;52.102;20.614;2023-04-08T13:36:16;5.55;;;5.05;;
20441;SDS011;10380;52.102;20.614;2023-04-08T13:38:44;6.82;;;5.88;;
20441;SDS011;10380;52.102;20.614;2023-04-08T13:41:11;6.32;;;5.70;;
20441;SDS011;10380;52.102;20.614;2023-04-08T13:43:38;7.43;;;6.20;;
20441;SDS011;10380;52.102;20.614;2023-04-08T13:46:05;6.70;;;6.10;;
20441;SDS011;10380;52.102;20.614;2023-04-08T13:48:32;7.63;;;6.03;;
20441;SDS011;10380;52.102;20.614;2023-04-08T13:50:59;6.65;;;5.60;;
20441;SDS011;10380;52.102;20.614;2023-04-08T13:53:26;6.00;;;5.40;;
20441;SDS011;10380;52.102;20.614;2023-04-08T13:55:52;7.20;;;6.43;;
20441;SDS011;10380;52.102;20.614;2023-04-08T13:58:21;7.68;;;6.10;;
20441;SDS011;10380;52.102;20.614;2023-04-08T14:00:50;5.82;;;5.22;;
20441;SDS011;10380;52.102;20.614;2023-04-08T14:03:17;5.05;;;4.55;;
20441;SDS011;10380;52.102;20.614;2023-04-08T14:05:44;10.43;;;5.55;;
20441;SDS011;10380;52.102;20.614;2023-04-08T14:08:12;16.98;;;5.55;;
20441;SDS011;10380;52.102;20.614;2023-04-08T14:10:39;6.40;;;5.32;;
20441;SDS011;10380;52.102;20.614;2023-04-08T14:13:07;5.10;;;4.57;;
20441;SDS011;10380;52.102;20.614;2023-04-08T14:15:35;6.78;;;5.28;;
20441;SDS011;10380;52.102;20.614;2023-04-08T14:18:01;5.53;;;5.03;;
20441;SDS011;10380;52.102;20.614;2023-04-08T14:20:29;5.55;;;4.95;;
20441;SDS011;10380;52.102;20.614;2023-04-08T14:22:56;5.38;;;4.88;;
20441;SDS011;10380;52.102;20.614;2023-04-08T14:25:23;6.55;;;5.43;;
20441;SDS011;10380;52.102;20.614;2023-04-08T14:27:51;6.18;;;5.57;;
20441;SDS011;10380;52.102;20.614;2023-04-08T14:30:24;7.32;;;6.22;;
20441;SDS011;10380;52.102;20.614;2023-04-08T14:32:53;10.40;;;7.13;;
20441;SDS011;10380;52.102;20.614;2023-04-08T14:35:19;8.88;;;6.78;;
20441;SDS011;10380;52.102;20.614;2023-04-08T14:37:47;6.20;;;5.50;;
20441;SDS011;10380;52.102;20.614;2023-04-08T14:40:14;6.10;;;5.47;;
20441;SDS011;10380;52.102;20.614;2023-04-08T14:42:40;6.28;;;5.22;;
20441;SDS011;10380;52.102;20.614;2023-04-08T14:45:08;6.78;;;5.97;;
20441;SDS011;10380;52.102;20.614;2023-04-08T14:47:35;6.30;;;5.55;;
20441;SDS011;10380;52.102;20.614;2023-04-08T14:50:02;7.95;;;6.15;;